sensor_id;sensor_type;location;lat;lon;timestamp;pressure;altitude;pressure_sealevel;temperature;humidity
29371;BME280;16357;52.188;7.838;2023-12-07T00:00:33;101158.94;;;5.82;68.95
29371;BME280;16357;52.188;7.838;2023-12-07T00:02:59;101155.31;;;5.83;69.02
29371;BME280;16357;52.188;7.838;2023-12-07T00:05:26;101158.84;;;5.83;68.85
29371;BME280;16357;52.188;7.838;2023-12-07T00:07:53;101153.41;;;5.85;69.01
29371;BME280;16357;52.188;7.838;2023-12-07T00:10:19;101152.53;;;5.84;68.93
29371;BME280;16357;52.188;7.838;2023-12-07T00:12:46;101160.41;;;5.86;68.77
29371;BME280;16357;52.188;7.838;2023-12-07T00:15:13;101166.59;;;5.86;68.74
29371;BME280;16357;52.188;7.838;2023-12-07T00:17:39;101166.59;;;5.86;68.70
29371;BME280;16357;52.188;7.838;2023-12-07T00:20:06;101169.25;;;5.86;68.97
29371;BME280;16357;52.188;7.838;2023-12-07T00:22:33;101179.91;;;5.86;69.05
29371;BME280;16357;52.188;7.838;2023-12-07T00:25:00;101190.69;;;5.85;68.30
29371;BME280;16357;52.188;7.838;2023-12-07T00:27:27;101173.72;;;5.86;68.34
29371;BME280;16357;52.188;7.838;2023-12-07T00:29:53;101183.63;;;5.84;68.46
29371;BME280;16357;52.188;7.838;2023-12-07T00:32:20;101180.22;;;5.82;68.01
29371;BME280;16357;52.188;7.838;2023-12-07T00:34:47;101181.31;;;5.79;68.06
29371;BME280;16357;52.188;7.838;2023-12-07T00:37:15;101167.28;;;5.77;68.26
29371;BME280;16357;52.188;7.838;2023-12-07T00:39:42;101185.28;;;5.73;68.21
29371;BME280;16357;52.188;7.838;2023-12-07T00:42:09;101194.25;;;5.72;68.07
29371;BME280;16357;52.188;7.838;2023-12-07T00:44:40;101188.19;;;5.70;68.27
29371;BME280;16357;52.188;7.838;2023-12-07T00:47:07;101184.78;;;5.68;68.29
29371;BME280;16357;52.188;7.838;2023-12-07T00:49:33;101189.38;;;5.66;68.51
29371;BME280;16357;52.188;7.838;2023-12-07T00:52:00;101187.81;;;5.64;68.40
29371;BME280;16357;52.188;7.838;2023-12-07T00:54:27;101186.22;;;5.61;68.06
29371;BME280;16357;52.188;7.838;2023-12-07T00:56:53;101188.13;;;5.59;67.95
29371;BME280;16357;52.188;7.838;2023-12-07T00:59:20;101176.97;;;5.54;68.19
29371;BME280;16357;52.188;7.838;2023-12-07T01:01:46;101186.03;;;5.52;67.79
29371;BME280;16357;52.188;7.838;2023-12-07T01:04:13;101190.75;;;5.48;68.21
29371;BME280;16357;52.188;7.838;2023-12-07T01:06:39;101187.34;;;5.46;68.12
29371;BME280;16357;52.188;7.838;2023-12-07T01:09:06;101198.22;;;5.43;68.60
29371;BME280;16357;52.188;7.838;2023-12-07T01:11:32;101192.16;;;5.41;68.51
29371;BME280;16357;52.188;7.838;2023-12-07T01:13:59;101192.25;;;5.39;68.07
29371;BME280;16357;52.188;7.838;2023-12-07T01:16:26;101195.03;;;5.38;68.27
29371;BME280;16357;52.188;7.838;2023-12-07T01:18:52;101203.97;;;5.37;68.68
29371;BME280;16357;52.188;7.838;2023-12-07T01:21:19;101207.59;;;5.36;68.29
29371;BME280;16357;52.188;7.838;2023-12-07T01:23:46;101208.56;;;5.35;68.34
29371;BME280;16357;52.188;7.838;2023-12-07T01:26:12;101201.53;;;5.34;68.87
29371;BME280;16357;52.188;7.838;2023-12-07T01:28:39;101214.81;;;5.34;68.14
29371;BME280;16357;52.188;7.838;2023-12-07T01:31:05;101221.13;;;5.33;68.72
29371;BME280;16357;52.188;7.838;2023-12-07T01:33:32;101215.06;;;5.31;68.73
29371;BME280;16357;52.188;7.838;2023-12-07T01:35:59;101214.22;;;5.30;68.94
29371;BME280;16357;52.188;7.838;2023-12-07T01:38:25;101215.06;;;5.31;68.44
29371;BME280;16357;52.188;7.838;2023-12-07T01:40:52;101216.03;;;5.30;68.38
29371;BME280;16357;52.188;7.838;2023-12-07T01:43:19;101221.34;;;5.30;68.74
29371;BME280;16357;52.188;7.838;2023-12-07T01:45:47;101217.72;;;5.31;68.78
29371;BME280;16357;52.188;7.838;2023-12-07T01:48:13;101224.84;;;5.30;68.84
29371;BME280;16357;52.188;7.838;2023-12-07T01:50:41;101225.69;;;5.31;68.52
29371;BME280;16357;52.188;7.838;2023-12-07T01:53:08;101225.78;;;5.29;68.87
29371;BME280;16357;52.188;7.838;2023-12-07T01:55:35;101236.44;;;5.29;68.48
29371;BME280;16357;52.188;7.838;2023-12-07T01:58:03;101222.28;;;5.28;68.45
29371;BME280;16357;52.188;7.838;2023-12-07T02:00:30;101220.47;;;5.29;68.53
29371;BME280;16357;52.188;7.838;2023-12-07T02:02:57;101225.06;;;5.27;68.40
29371;BME280;16357;52.188;7.838;2023-12-07T02:05:25;101229.53;;;5.26;68.34
29371;BME280;16357;52.188;7.838;2023-12-07T02:07:52;101232.19;;;5.26;68.50
29371;BME280;16357;52.188;7.838;2023-12-07T02:10:18;101231.47;;;5.24;68.47
29371;BME280;16357;52.188;7.838;2023-12-07T02:12:46;101233.28;;;5.24;68.26
29371;BME280;16357;52.188;7.838;2023-12-07T02:15:13;101228.06;;;5.22;67.91
29371;BME280;16357;52.188;7.838;2023-12-07T02:20:22;101220.53;;;5.16;67.39
29371;BME280;16357;52.188;7.838;2023-12-07T02:22:56;101229.66;;;5.12;67.44
29371;BME280;16357;52.188;7.838;2023-12-07T02:28:48;101231.59;;;4.97;66.94
29371;BME280;16357;52.188;7.838;2023-12-07T02:31:15;101233.09;;;4.89;66.97
29371;BME280;16357;52.188;7.838;2023-12-07T02:33:41;101237.13;;;4.81;66.70
29371;BME280;16357;52.188;7.838;2023-12-07T02:36:08;101238.63;;;4.73;66.43
29371;BME280;16357;52.188;7.838;2023-12-07T02:38:36;101240.13;;;4.64;66.59
29371;BME280;16357;52.188;7.838;2023-12-07T02:41:04;101239.91;;;4.54;66.31
29371;BME280;16357;52.188;7.838;2023-12-07T02:43:31;101245.88;;;4.45;66.47
29371;BME280;16357;52.188;7.838;2023-12-07T02:45:59;101245.63;;;4.35;66.74
29371;BME280;16357;52.188;7.838;2023-12-07T02:48:25;101246.16;;;4.28;66.81
29371;BME280;16357;52.188;7.838;2023-12-07T02:50:52;101239.66;;;4.19;66.60
29371;BME280;16357;52.188;7.838;2023-12-07T02:53:19;101241.97;;;4.11;66.62
29371;BME280;16357;52.188;7.838;2023-12-07T02:55:45;101233.66;;;4.03;66.76
29371;BME280;16357;52.188;7.838;2023-12-07T02:58:12;101248.31;;;3.95;66.53
29371;BME280;16357;52.188;7.838;2023-12-07T03:00:38;101247.97;;;3.87;66.58
29371;BME280;16357;52.188;7.838;2023-12-07T03:03:05;101247.50;;;3.81;66.50
29371;BME280;16357;52.188;7.838;2023-12-07T03:05:32;101253.28;;;3.73;66.71
29371;BME280;16357;52.188;7.838;2023-12-07T03:07:58;101249.31;;;3.66;67.21
29371;BME280;16357;52.188;7.838;2023-12-07T03:10:25;101255.88;;;3.60;67.33
29371;BME280;16357;52.188;7.838;2023-12-07T03:12:52;101256.28;;;3.54;67.46
29371;BME280;16357;52.188;7.838;2023-12-07T03:15:18;101249.59;;;3.48;67.56
29371;BME280;16357;52.188;7.838;2023-12-07T03:17:45;101243.72;;;3.43;67.76
29371;BME280;16357;52.188;7.838;2023-12-07T03:20:12;101251.88;;;3.40;68.14
29371;BME280;16357;52.188;7.838;2023-12-07T03:22:39;101257.38;;;3.37;68.69
29371;BME280;16357;52.188;7.838;2023-12-07T03:25:06;101249.50;;;3.36;68.94
29371;BME280;16357;52.188;7.838;2023-12-07T03:27:33;101247.81;;;3.35;69.35
29371;BME280;16357;52.188;7.838;2023-12-07T03:29:59;101250.34;;;3.36;69.23
29371;BME280;16357;52.188;7.838;2023-12-07T03:32:26;101248.53;;;3.37;69.68
29371;BME280;16357;52.188;7.838;2023-12-07T03:34:53;101257.19;;;3.40;69.92
29371;BME280;16357;52.188;7.838;2023-12-07T03:37:19;101247.34;;;3.42;69.75
29371;BME280;16357;52.188;7.838;2023-12-07T03:39:46;101256.78;;;3.46;70.12
29371;BME280;16357;52.188;7.838;2023-12-07T03:42:12;101265.28;;;3.51;70.05
29371;BME280;16357;52.188;7.838;2023-12-07T03:44:59;101260.63;;;3.55;70.21
29371;BME280;16357;52.188;7.838;2023-12-07T03:47:26;101255.88;;;3.60;70.16
29371;BME280;16357;52.188;7.838;2023-12-07T03:49:53;101261.88;;;3.64;70.21
29371;BME280;16357;52.188;7.838;2023-12-07T03:52:20;101251.81;;;3.69;70.05
29371;BME280;16357;52.188;7.838;2023-12-07T03:54:46;101255.94;;;3.73;70.07
29371;BME280;16357;52.188;7.838;2023-12-07T03:57:13;101246.84;;;3.77;70.20
29371;BME280;16357;52.188;7.838;2023-12-07T03:59:39;101248.47;;;3.80;69.91
29371;BME280;16357;52.188;7.838;2023-12-07T04:02:06;101247.28;;;3.84;70.02
29371;BME280;16357;52.188;7.838;2023-12-07T04:04:33;101259.50;;;3.86;69.72
29371;BME280;16357;52.188;7.838;2023-12-07T04:07:00;101256.75;;;3.88;69.74
29371;BME280;16357;52.188;7.838;2023-12-07T04:09:26;101258.38;;;3.90;69.95
29371;BME280;16357;52.188;7.838;2023-12-07T04:11:53;101259.13;;;3.92;69.52
29371;BME280;16357;52.188;7.838;2023-12-07T04:14:19;101250.94;;;3.95;69.56
29371;BME280;16357;52.188;7.838;2023-12-07T04:16:47;101258.91;;;3.95;69.73
29371;BME280;16357;52.188;7.838;2023-12-07T04:19:13;101257.00;;;3.97;69.36
29371;BME280;16357;52.188;7.838;2023-12-07T04:21:40;101256.06;;;3.99;69.56
29371;BME280;16357;52.188;7.838;2023-12-07T04:24:07;101264.88;;;3.99;69.32
29371;BME280;16357;52.188;7.838;2023-12-07T04:26:33;101262.13;;;4.01;69.39
29371;BME280;16357;52.188;7.838;2023-12-07T04:29:00;101262.00;;;4.02;69.14
29371;BME280;16357;52.188;7.838;2023-12-07T04:31:26;101260.19;;;4.03;69.10
29371;BME280;16357;52.188;7.838;2023-12-07T04:33:53;101262.84;;;4.03;69.38
29371;BME280;16357;52.188;7.838;2023-12-07T04:36:20;101255.75;;;4.03;69.09
29371;BME280;16357;52.188;7.838;2023-12-07T04:38:46;101272.53;;;4.04;69.32
29371;BME280;16357;52.188;7.838;2023-12-07T04:41:13;101266.38;;;4.03;69.20
29371;BME280;16357;52.188;7.838;2023-12-07T04:43:39;101255.75;;;4.03;69.21
29371;BME280;16357;52.188;7.838;2023-12-07T04:46:06;101269.13;;;4.02;69.00
29371;BME280;16357;52.188;7.838;2023-12-07T04:48:33;101260.41;;;4.00;68.79
29371;BME280;16357;52.188;7.838;2023-12-07T04:50:59;101261.44;;;3.97;68.37
29371;BME280;16357;52.188;7.838;2023-12-07T04:53:26;101266.97;;;3.94;68.15
29371;BME280;16357;52.188;7.838;2023-12-07T04:55:52;101279.59;;;3.90;68.23
29371;BME280;16357;52.188;7.838;2023-12-07T04:58:19;101281.69;;;3.85;68.27
29371;BME280;16357;52.188;7.838;2023-12-07T05:00:45;101274.78;;;3.83;68.63
29371;BME280;16357;52.188;7.838;2023-12-07T05:03:12;101275.84;;;3.80;68.69
29371;BME280;16357;52.188;7.838;2023-12-07T05:05:39;101285.69;;;3.78;68.94
29371;BME280;16357;52.188;7.838;2023-12-07T05:08:05;101285.69;;;3.78;68.97
29371;BME280;16357;52.188;7.838;2023-12-07T05:10:32;101281.34;;;3.77;69.36
29371;BME280;16357;52.188;7.838;2023-12-07T05:12:58;101284.00;;;3.77;69.24
29371;BME280;16357;52.188;7.838;2023-12-07T05:15:25;101294.50;;;3.79;69.56
29371;BME280;16357;52.188;7.838;2023-12-07T05:17:52;101290.06;;;3.79;69.80
29371;BME280;16357;52.188;7.838;2023-12-07T05:20:19;101283.69;;;3.82;69.76
29371;BME280;16357;52.188;7.838;2023-12-07T05:22:49;101285.28;;;3.84;69.80
29371;BME280;16357;52.188;7.838;2023-12-07T05:25:15;101290.50;;;3.86;69.87
29371;BME280;16357;52.188;7.838;2023-12-07T05:27:42;101287.66;;;3.89;69.73
29371;BME280;16357;52.188;7.838;2023-12-07T05:30:09;101294.56;;;3.91;70.09
29371;BME280;16357;52.188;7.838;2023-12-07T05:32:36;101296.06;;;3.95;70.08
29371;BME280;16357;52.188;7.838;2023-12-07T05:35:02;101292.38;;;3.98;69.94
29371;BME280;16357;52.188;7.838;2023-12-07T05:37:29;101287.69;;;4.02;69.91
29371;BME280;16357;52.188;7.838;2023-12-07T05:39:56;101283.03;;;4.05;70.02
29371;BME280;16357;52.188;7.838;2023-12-07T05:42:23;101290.81;;;4.08;69.91
29371;BME280;16357;52.188;7.838;2023-12-07T05:44:50;101287.97;;;4.11;70.14
29371;BME280;16357;52.188;7.838;2023-12-07T05:47:17;101286.91;;;4.14;69.89
29371;BME280;16357;52.188;7.838;2023-12-07T05:49:43;101284.03;;;4.17;69.79
29371;BME280;16357;52.188;7.838;2023-12-07T05:52:10;101275.03;;;4.20;69.69
29371;BME280;16357;52.188;7.838;2023-12-07T05:54:39;101282.69;;;4.24;69.92
29371;BME280;16357;52.188;7.838;2023-12-07T05:57:08;101274.59;;;4.26;69.71
29371;BME280;16357;52.188;7.838;2023-12-07T05:59:38;101275.28;;;4.29;69.67
29371;BME280;16357;52.188;7.838;2023-12-07T06:02:05;101281.31;;;4.31;69.97
29371;BME280;16357;52.188;7.838;2023-12-07T06:04:33;101285.56;;;4.34;69.83
29371;BME280;16357;52.188;7.838;2023-12-07T06:06:59;101281.97;;;4.35;69.91
29371;BME280;16357;52.188;7.838;2023-12-07T06:09:26;101274.72;;;4.37;69.42
29371;BME280;16357;52.188;7.838;2023-12-07T06:11:52;101285.25;;;4.38;69.57
29371;BME280;16357;52.188;7.838;2023-12-07T06:14:19;101275.38;;;4.40;69.72
29371;BME280;16357;52.188;7.838;2023-12-07T06:16:45;101293.97;;;4.40;69.25
29371;BME280;16357;52.188;7.838;2023-12-07T06:19:12;101293.00;;;4.42;69.38
29371;BME280;16357;52.188;7.838;2023-12-07T06:21:39;101298.25;;;4.43;69.53
29371;BME280;16357;52.188;7.838;2023-12-07T06:24:05;101301.75;;;4.44;69.26
29371;BME280;16357;52.188;7.838;2023-12-07T06:26:33;101302.72;;;4.43;69.40
29371;BME280;16357;52.188;7.838;2023-12-07T06:29:00;101294.75;;;4.43;69.13
29371;BME280;16357;52.188;7.838;2023-12-07T06:31:26;101295.59;;;4.43;69.51
29371;BME280;16357;52.188;7.838;2023-12-07T06:33:53;101299.09;;;4.44;69.24
29371;BME280;16357;52.188;7.838;2023-12-07T06:36:21;101294.53;;;4.46;69.59
29371;BME280;16357;52.188;7.838;2023-12-07T06:38:48;101295.38;;;4.46;69.45
29371;BME280;16357;52.188;7.838;2023-12-07T06:41:15;101300.69;;;4.46;69.01
29371;BME280;16357;52.188;7.838;2023-12-07T06:43:45;101306.84;;;4.47;69.00
29371;BME280;16357;52.188;7.838;2023-12-07T06:46:12;101307.81;;;4.46;68.98
29371;BME280;16357;52.188;7.838;2023-12-07T06:48:40;101305.16;;;4.46;69.04
29371;BME280;16357;52.188;7.838;2023-12-07T06:51:07;101307.06;;;4.44;68.94
29371;BME280;16357;52.188;7.838;2023-12-07T06:53:34;101315.03;;;4.44;69.30
29371;BME280;16357;52.188;7.838;2023-12-07T06:56:01;101315.03;;;4.44;69.09
29371;BME280;16357;52.188;7.838;2023-12-07T06:58:27;101313.44;;;4.41;69.39
29371;BME280;16357;52.188;7.838;2023-12-07T07:00:54;101314.25;;;4.42;69.42
29371;BME280;16357;52.188;7.838;2023-12-07T07:03:20;101322.25;;;4.42;69.17
29371;BME280;16357;52.188;7.838;2023-12-07T07:05:47;101330.22;;;4.42;69.01
29371;BME280;16357;52.188;7.838;2023-12-07T07:08:14;101329.28;;;4.43;69.46
29371;BME280;16357;52.188;7.838;2023-12-07T07:10:40;101328.31;;;4.44;69.55
29371;BME280;16357;52.188;7.838;2023-12-07T07:13:07;101327.56;;;4.42;69.46
29371;BME280;16357;52.188;7.838;2023-12-07T07:15:34;101333.72;;;4.42;69.11
29371;BME280;16357;52.188;7.838;2023-12-07T07:18:00;101336.38;;;4.42;69.08
29371;BME280;16357;52.188;7.838;2023-12-07T07:20:27;101326.63;;;4.43;69.16
29371;BME280;16357;52.188;7.838;2023-12-07T07:22:54;101333.63;;;4.44;69.02
29371;BME280;16357;52.188;7.838;2023-12-07T07:25:20;101338.09;;;4.43;69.04
29371;BME280;16357;52.188;7.838;2023-12-07T07:27:47;101331.94;;;4.43;69.21
29371;BME280;16357;52.188;7.838;2023-12-07T07:30:14;101335.44;;;4.43;69.12
29371;BME280;16357;52.188;7.838;2023-12-07T07:32:41;101332.88;;;4.42;69.31
29371;BME280;16357;52.188;7.838;2023-12-07T07:35:07;101336.38;;;4.42;68.94
29371;BME280;16357;52.188;7.838;2023-12-07T07:37:34;101336.38;;;4.42;68.92
29371;BME280;16357;52.188;7.838;2023-12-07T07:40:01;101334.69;;;4.41;68.85
29371;BME280;16357;52.188;7.838;2023-12-07T07:42:33;101333.06;;;4.38;68.89
29371;BME280;16357;52.188;7.838;2023-12-07T07:45:00;101335.81;;;4.37;68.88
29371;BME280;16357;52.188;7.838;2023-12-07T07:47:26;101332.31;;;4.36;69.16
29371;BME280;16357;52.188;7.838;2023-12-07T07:49:53;101339.44;;;4.36;69.13
29371;BME280;16357;52.188;7.838;2023-12-07T07:52:20;101336.78;;;4.36;69.32
29371;BME280;16357;52.188;7.838;2023-12-07T07:54:46;101337.63;;;4.36;69.36
29371;BME280;16357;52.188;7.838;2023-12-07T07:57:13;101336.69;;;4.37;69.45
29371;BME280;16357;52.188;7.838;2023-12-07T07:59:39;101342.94;;;4.36;69.43
29371;BME280;16357;52.188;7.838;2023-12-07T08:02:06;101354.41;;;4.37;69.47
29371;BME280;16357;52.188;7.838;2023-12-07T08:04:33;101344.66;;;4.37;69.65
29371;BME280;16357;52.188;7.838;2023-12-07T08:06:59;101351.66;;;4.38;69.71
29371;BME280;16357;52.188;7.838;2023-12-07T08:09:26;101350.69;;;4.39;69.46
29371;BME280;16357;52.188;7.838;2023-12-07T08:11:53;101345.38;;;4.39;69.61
29371;BME280;16357;52.188;7.838;2023-12-07T08:14:19;101342.56;;;4.43;69.39
29371;BME280;16357;52.188;7.838;2023-12-07T08:16:46;101341.50;;;4.45;69.58
29371;BME280;16357;52.188;7.838;2023-12-07T08:19:13;101345.94;;;4.45;69.73
29371;BME280;16357;52.188;7.838;2023-12-07T08:21:40;101351.91;;;4.48;69.79
29371;BME280;16357;52.188;7.838;2023-12-07T08:24:06;101357.09;;;4.50;69.36
29371;BME280;16357;52.188;7.838;2023-12-07T08:26:33;101350.88;;;4.51;69.15
29371;BME280;16357;52.188;7.838;2023-12-07T08:29:00;101357.88;;;4.52;69.00
29371;BME280;16357;52.188;7.838;2023-12-07T08:31:26;101348.94;;;4.53;68.92
29371;BME280;16357;52.188;7.838;2023-12-07T08:33:53;101348.94;;;4.53;69.20
29371;BME280;16357;52.188;7.838;2023-12-07T08:36:20;101341.94;;;4.52;68.61
29371;BME280;16357;52.188;7.838;2023-12-07T08:38:47;101351.72;;;4.51;69.02
29371;BME280;16357;52.188;7.838;2023-12-07T08:41:13;101357.03;;;4.51;68.62
29371;BME280;16357;52.188;7.838;2023-12-07T08:43:40;101355.34;;;4.50;68.96
29371;BME280;16357;52.188;7.838;2023-12-07T08:46:07;101358.84;;;4.51;69.30
29371;BME280;16357;52.188;7.838;2023-12-07T08:48:36;101360.72;;;4.49;69.02
29371;BME280;16357;52.188;7.838;2023-12-07T08:51:07;101364.22;;;4.49;68.96
29371;BME280;16357;52.188;7.838;2023-12-07T08:53:35;101364.22;;;4.49;68.67
29371;BME280;16357;52.188;7.838;2023-12-07T08:56:02;101374.03;;;4.49;68.71
29371;BME280;16357;52.188;7.838;2023-12-07T08:58:28;101378.38;;;4.50;68.80
29371;BME280;16357;52.188;7.838;2023-12-07T09:00:55;101368.69;;;4.49;68.87
29371;BME280;16357;52.188;7.838;2023-12-07T09:03:22;101368.69;;;4.49;68.96
29371;BME280;16357;52.188;7.838;2023-12-07T09:05:54;101373.16;;;4.48;68.83
29371;BME280;16357;52.188;7.838;2023-12-07T09:08:21;101361.69;;;4.48;68.95
29371;BME280;16357;52.188;7.838;2023-12-07T09:10:47;101363.38;;;4.49;68.62
29371;BME280;16357;52.188;7.838;2023-12-07T09:13:16;101366.03;;;4.49;69.17
29371;BME280;16357;52.188;7.838;2023-12-07T09:15:43;101370.31;;;4.51;69.21
29371;BME280;16357;52.188;7.838;2023-12-07T09:18:10;101373.72;;;4.53;69.13
29371;BME280;16357;52.188;7.838;2023-12-07T09:20:39;101368.41;;;4.53;68.91
29371;BME280;16357;52.188;7.838;2023-12-07T09:23:12;101366.59;;;4.54;68.46
29371;BME280;16357;52.188;7.838;2023-12-07T09:25:39;101372.75;;;4.54;68.70
29371;BME280;16357;52.188;7.838;2023-12-07T09:28:07;101377.97;;;4.56;68.53
29371;BME280;16357;52.188;7.838;2023-12-07T09:30:34;101373.59;;;4.55;68.66
29371;BME280;16357;52.188;7.838;2023-12-07T09:33:01;101377.97;;;4.56;68.35
29371;BME280;16357;52.188;7.838;2023-12-07T09:35:32;101374.56;;;4.54;68.65
29371;BME280;16357;52.188;7.838;2023-12-07T09:38:01;101376.38;;;4.53;68.87
29371;BME280;16357;52.188;7.838;2023-12-07T09:40:29;101394.78;;;4.56;68.56
29371;BME280;16357;52.188;7.838;2023-12-07T09:42:56;101385.94;;;4.56;68.37
29371;BME280;16357;52.188;7.838;2023-12-07T09:45:23;101390.28;;;4.57;68.75
29371;BME280;16357;52.188;7.838;2023-12-07T09:47:54;101383.16;;;4.57;68.86
29371;BME280;16357;52.188;7.838;2023-12-07T09:50:25;101373.38;;;4.58;68.66
29371;BME280;16357;52.188;7.838;2023-12-07T09:52:54;101364.47;;;4.59;68.88
29371;BME280;16357;52.188;7.838;2023-12-07T09:55:34;101368.63;;;4.63;69.21
29371;BME280;16357;52.188;7.838;2023-12-07T09:58:05;101371.94;;;4.67;69.20
29371;BME280;16357;52.188;7.838;2023-12-07T10:00:35;101372.59;;;4.70;69.18
29371;BME280;16357;52.188;7.838;2023-12-07T10:03:02;101374.09;;;4.74;69.50
29371;BME280;16357;52.188;7.838;2023-12-07T10:05:28;101355.16;;;4.79;69.23
29371;BME280;16357;52.188;7.838;2023-12-07T10:07:55;101357.50;;;4.83;69.34
29371;BME280;16357;52.188;7.838;2023-12-07T10:10:22;101353.56;;;4.89;69.36
29371;BME280;16357;52.188;7.838;2023-12-07T10:15:19;101343.25;;;4.97;68.93
29371;BME280;16357;52.188;7.838;2023-12-07T10:17:51;101337.75;;;5.00;69.01
29371;BME280;16357;52.188;7.838;2023-12-07T10:20:20;101328.72;;;5.03;69.07
29371;BME280;16357;52.188;7.838;2023-12-07T10:23:06;101326.69;;;5.06;69.14
29371;BME280;16357;52.188;7.838;2023-12-07T10:25:38;101322.97;;;5.09;68.86
29371;BME280;16357;52.188;7.838;2023-12-07T10:28:05;101331.56;;;5.13;69.31
29371;BME280;16357;52.188;7.838;2023-12-07T10:30:36;101330.50;;;5.15;69.19
29371;BME280;16357;52.188;7.838;2023-12-07T10:33:06;101331.16;;;5.19;69.07
29371;BME280;16357;52.188;7.838;2023-12-07T10:35:40;101321.16;;;5.22;69.08
29371;BME280;16357;52.188;7.838;2023-12-07T10:38:08;101321.69;;;5.27;68.83
29371;BME280;16357;52.188;7.838;2023-12-07T10:40:35;101310.81;;;5.31;69.48
29371;BME280;16357;52.188;7.838;2023-12-07T10:43:05;101310.50;;;5.35;69.22
29371;BME280;16357;52.188;7.838;2023-12-07T10:45:33;101311.03;;;5.40;69.17
29371;BME280;16357;52.188;7.838;2023-12-07T10:48:03;101304.50;;;5.44;69.18
29371;BME280;16357;52.188;7.838;2023-12-07T10:50:35;101297.06;;;5.49;69.01
29371;BME280;16357;52.188;7.838;2023-12-07T10:53:23;101292.16;;;5.56;69.14
29371;BME280;16357;52.188;7.838;2023-12-07T10:56:00;101299.78;;;5.61;68.73
29371;BME280;16357;52.188;7.838;2023-12-07T10:58:27;101292.31;;;5.66;69.02
29371;BME280;16357;52.188;7.838;2023-12-07T11:00:56;101280.59;;;5.68;68.75
29371;BME280;16357;52.188;7.838;2023-12-07T11:03:24;101276.88;;;5.71;68.66
29371;BME280;16357;52.188;7.838;2023-12-07T11:05:52;101277.38;;;5.76;68.83
29371;BME280;16357;52.188;7.838;2023-12-07T11:08:30;101277.06;;;5.81;69.04
29371;BME280;16357;52.188;7.838;2023-12-07T11:13:56;101272.00;;;5.89;68.62
29371;BME280;16357;52.188;7.838;2023-12-07T11:16:39;101257.53;;;5.93;68.87
29371;BME280;16357;52.188;7.838;2023-12-07T11:22:01;101258.91;;;5.99;68.00
29371;BME280;16357;52.188;7.838;2023-12-07T11:24:28;101256.13;;;6.00;67.99
29371;BME280;16357;52.188;7.838;2023-12-07T11:26:54;101252.50;;;6.01;67.83
29371;BME280;16357;52.188;7.838;2023-12-07T11:29:24;101249.59;;;6.04;67.94
29371;BME280;16357;52.188;7.838;2023-12-07T11:31:56;101253.13;;;6.05;68.22
29371;BME280;16357;52.188;7.838;2023-12-07T11:34:39;101260.03;;;6.07;68.34
29371;BME280;16357;52.188;7.838;2023-12-07T11:37:07;101252.78;;;6.09;67.87
29371;BME280;16357;52.188;7.838;2023-12-07T11:39:39;101240.19;;;6.11;68.11
29371;BME280;16357;52.188;7.838;2023-12-07T11:42:11;101237.53;;;6.11;67.73
29371;BME280;16357;52.188;7.838;2023-12-07T11:44:39;101241.88;;;6.12;67.36
29371;BME280;16357;52.188;7.838;2023-12-07T11:47:06;101235.72;;;6.12;67.69
29371;BME280;16357;52.188;7.838;2023-12-07T11:49:33;101238.28;;;6.13;67.56
29371;BME280;16357;52.188;7.838;2023-12-07T11:52:21;101235.63;;;6.13;67.50
29371;BME280;16357;52.188;7.838;2023-12-07T11:54:49;101227.50;;;6.15;68.04
29371;BME280;16357;52.188;7.838;2023-12-07T11:57:17;101231.00;;;6.15;67.54
29371;BME280;16357;52.188;7.838;2023-12-07T11:59:44;101220.25;;;6.17;67.49
29371;BME280;16357;52.188;7.838;2023-12-07T12:02:12;101227.16;;;6.20;67.81
29371;BME280;16357;52.188;7.838;2023-12-07T12:04:40;101220.59;;;6.24;67.91
29371;BME280;16357;52.188;7.838;2023-12-07T12:07:07;101217.75;;;6.27;67.87
29371;BME280;16357;52.188;7.838;2023-12-07T12:09:34;101216.53;;;6.31;67.32
29371;BME280;16357;52.188;7.838;2023-12-07T12:12:01;101206.59;;;6.33;67.38
29371;BME280;16357;52.188;7.838;2023-12-07T12:14:28;101198.38;;;6.36;67.50
29371;BME280;16357;52.188;7.838;2023-12-07T12:16:55;101205.28;;;6.38;67.04
29371;BME280;16357;52.188;7.838;2023-12-07T12:19:23;101203.22;;;6.42;67.35
29371;BME280;16357;52.188;7.838;2023-12-07T12:22:02;101195.84;;;6.46;66.80
29371;BME280;16357;52.188;7.838;2023-12-07T12:24:34;101191.38;;;6.46;66.41
29371;BME280;16357;52.188;7.838;2023-12-07T12:27:02;101186.03;;;6.46;66.65
29371;BME280;16357;52.188;7.838;2023-12-07T12:29:29;101185.06;;;6.47;66.33
29371;BME280;16357;52.188;7.838;2023-12-07T12:32:04;101183.25;;;6.48;66.44
29371;BME280;16357;52.188;7.838;2023-12-07T12:34:32;101173.44;;;6.48;66.78
29371;BME280;16357;52.188;7.838;2023-12-07T12:37:00;101175.88;;;6.51;67.05
29371;BME280;16357;52.188;7.838;2023-12-07T12:39:30;101179.97;;;6.55;66.67
29371;BME280;16357;52.188;7.838;2023-12-07T12:42:00;101177.09;;;6.58;66.49
29371;BME280;16357;52.188;7.838;2023-12-07T12:44:27;101167.13;;;6.60;66.24
29371;BME280;16357;52.188;7.838;2023-12-07T12:47:07;101162.53;;;6.63;66.16
29371;BME280;16357;52.188;7.838;2023-12-07T12:49:38;101164.25;;;6.64;65.77
29371;BME280;16357;52.188;7.838;2023-12-07T12:52:10;101157.22;;;6.63;66.14
29371;BME280;16357;52.188;7.838;2023-12-07T12:54:38;101149.22;;;6.63;65.95
29371;BME280;16357;52.188;7.838;2023-12-07T12:57:06;101153.69;;;6.62;65.62
29371;BME280;16357;52.188;7.838;2023-12-07T12:59:34;101156.47;;;6.60;65.90
29371;BME280;16357;52.188;7.838;2023-12-07T13:02:02;101139.53;;;6.62;65.66
29371;BME280;16357;52.188;7.838;2023-12-07T13:04:31;101139.63;;;6.60;65.23
29371;BME280;16357;52.188;7.838;2023-12-07T13:07:07;101132.72;;;6.57;65.26
29371;BME280;16357;52.188;7.838;2023-12-07T13:09:34;101123.03;;;6.56;65.17
29371;BME280;16357;52.188;7.838;2023-12-07T13:12:00;101113.47;;;6.54;65.31
29371;BME280;16357;52.188;7.838;2023-12-07T13:14:31;101116.25;;;6.52;65.47
29371;BME280;16357;52.188;7.838;2023-12-07T13:17:02;101108.41;;;6.51;65.54